createdAt,value
2019-02-19T00:01:32.032Z,98.60
2019-02-19T00:06:35.420Z,99.00
2019-02-19T00:11:38.824Z,99.10
2019-02-19T00:16:42.294Z,99.30
2019-02-19T00:21:45.695Z,99.50
2019-02-19T00:26:49.075Z,99.90
2019-02-19T00:31:52.466Z,99.90
2019-02-19T00:36:55.826Z,99.90
2019-02-19T00:41:59.207Z,99.90
2019-02-19T00:47:02.591Z,99.90
2019-02-19T00:52:05.975Z,99.90
2019-02-19T00:57:09.343Z,99.90
2019-02-19T01:02:12.724Z,99.90
2019-02-19T01:07:16.111Z,99.90
2019-02-19T01:12:19.576Z,99.90
2019-02-19T01:17:22.974Z,99.90
2019-02-19T01:22:26.383Z,99.90
2019-02-19T01:27:30.347Z,99.90
2019-02-19T01:32:33.749Z,99.90
2019-02-19T01:37:37.136Z,99.90
2019-02-19T01:42:40.589Z,99.90
2019-02-19T01:47:43.971Z,99.90
2019-02-19T01:52:47.349Z,99.90
2019-02-19T01:57:50.739Z,99.90
2019-02-19T02:02:54.121Z,99.90
2019-02-19T02:07:57.507Z,99.90
2019-02-19T02:13:00.906Z,99.90
2019-02-19T02:18:23.635Z,99.90
2019-02-19T02:23:27.023Z,99.90
2019-02-19T02:28:30.415Z,99.90
2019-02-19T02:33:33.819Z,99.90
2019-02-19T02:38:37.208Z,99.90
2019-02-19T02:43:40.602Z,99.90
2019-02-19T02:48:43.982Z,99.90
2019-02-19T02:53:47.369Z,99.90
2019-02-19T02:58:50.753Z,99.90
2019-02-19T03:03:54.144Z,99.90
2019-02-19T03:08:57.527Z,99.90
2019-02-19T03:14:00.915Z,99.90
2019-02-19T03:19:04.321Z,99.90
2019-02-19T03:24:07.688Z,99.90
2019-02-19T03:29:11.081Z,99.90
2019-02-19T03:34:14.456Z,99.90
2019-02-19T03:39:17.844Z,99.90
2019-02-19T03:44:21.228Z,99.90
2019-02-19T03:49:24.619Z,99.90
2019-02-19T03:54:28.077Z,99.90
2019-02-19T03:59:31.476Z,99.90
2019-02-19T04:04:34.931Z,99.90
2019-02-19T04:09:38.341Z,99.90
2019-02-19T04:14:41.734Z,99.90
2019-02-19T04:19:45.128Z,99.90
2019-02-19T04:24:48.511Z,99.90
2019-02-19T04:29:51.900Z,99.90
2019-02-19T04:34:55.284Z,99.90
2019-02-19T04:39:58.672Z,99.90
2019-02-19T04:45:02.064Z,99.90
2019-02-19T04:50:07.099Z,99.90
2019-02-19T04:55:10.551Z,99.90
2019-02-19T05:00:14.584Z,99.90
2019-02-19T05:05:17.982Z,99.90
2019-02-19T05:10:21.362Z,99.90
2019-02-19T05:15:24.742Z,99.90
2019-02-19T05:20:28.126Z,99.90
2019-02-19T05:25:31.507Z,99.90
2019-02-19T05:30:34.906Z,99.90
2019-02-19T05:35:38.294Z,99.90
2019-02-19T05:40:41.681Z,99.90
2019-02-19T05:45:45.077Z,99.90
2019-02-19T05:50:48.458Z,99.90
2019-02-19T05:55:51.843Z,99.90
2019-02-19T06:00:55.227Z,99.90
2019-02-19T06:05:58.606Z,99.90
2019-02-19T06:11:01.996Z,99.90
2019-02-19T06:16:05.385Z,99.90
2019-02-19T06:21:08.846Z,99.90
2019-02-19T06:26:12.256Z,99.90
2019-02-19T06:31:15.631Z,99.90
2019-02-19T06:36:19.019Z,99.90
2019-02-19T06:41:22.407Z,99.90
2019-02-19T06:46:25.816Z,99.90
2019-02-19T06:51:29.200Z,99.90
2019-02-19T06:56:32.671Z,99.90
2019-02-19T07:01:40.656Z,99.90
2019-02-19T07:06:44.041Z,99.90
2019-02-19T07:11:47.443Z,99.90
2019-02-19T07:16:50.842Z,99.90
2019-02-19T07:21:54.227Z,99.90
2019-02-19T07:26:57.620Z,99.90
2019-02-19T07:32:00.999Z,99.90
2019-02-19T07:37:04.419Z,99.90
2019-02-19T07:42:07.819Z,99.90
2019-02-19T07:47:11.200Z,99.90
2019-02-19T07:52:14.583Z,99.90
2019-02-19T07:57:17.976Z,99.90
2019-02-19T08:02:21.368Z,99.90
2019-02-19T08:07:24.758Z,99.90
2019-02-19T08:12:28.147Z,99.90
2019-02-19T08:17:33.585Z,99.90
2019-02-19T08:22:36.705Z,99.90
2019-02-19T08:27:40.120Z,99.90
2019-02-19T08:32:43.494Z,99.90
2019-02-19T08:37:46.880Z,99.90
2019-02-19T08:42:50.273Z,99.90
2019-02-19T08:47:53.657Z,99.90
2019-02-19T08:52:57.033Z,99.90
2019-02-19T08:58:00.412Z,99.90
2019-02-19T09:03:03.815Z,99.90
2019-02-19T09:08:07.198Z,99.90
2019-02-19T09:13:10.584Z,99.90
2019-02-19T09:18:13.971Z,99.90
2019-02-19T09:23:17.354Z,99.90
2019-02-19T09:28:20.736Z,99.90
2019-02-19T09:33:24.129Z,99.90
2019-02-19T09:38:27.512Z,99.90
2019-02-19T09:43:35.501Z,99.90
2019-02-19T09:48:36.052Z,99.90
2019-02-19T09:53:39.427Z,99.90
2019-02-19T09:58:42.812Z,99.90
2019-02-19T10:03:46.199Z,99.90
2019-02-19T10:08:49.587Z,99.90
2019-02-19T10:13:52.969Z,99.90
2019-02-19T10:18:56.348Z,99.90
2019-02-19T10:23:59.731Z,99.90
2019-02-19T10:29:03.119Z,99.90
2019-02-19T10:34:06.499Z,99.90
2019-02-19T10:39:11.323Z,99.90
2019-02-19T10:44:14.699Z,99.90
2019-02-19T10:49:18.086Z,99.90
2019-02-19T10:54:21.482Z,99.90
2019-02-19T10:59:24.863Z,99.90
2019-02-19T11:04:28.246Z,99.90
2019-02-19T11:09:31.628Z,99.90
2019-02-19T11:14:35.007Z,98.70
2019-02-19T11:19:38.399Z,97.80
2019-02-19T11:24:41.790Z,98.90
2019-02-19T11:29:45.168Z,96.80
2019-02-19T11:34:48.554Z,94.60
2019-02-19T11:39:51.945Z,93.30
2019-02-19T11:44:55.365Z,96.00
2019-02-19T11:49:58.823Z,93.00
2019-02-19T11:55:02.211Z,91.40
2019-02-19T12:00:10.713Z,90.40
2019-02-19T12:05:14.113Z,87.40
2019-02-19T12:10:17.505Z,86.50
2019-02-19T12:15:20.909Z,85.40
2019-02-19T12:20:24.305Z,85.20
2019-02-19T12:25:27.699Z,85.40
2019-02-19T12:30:31.079Z,84.90
2019-02-19T12:40:49.456Z,85.00
2019-02-19T12:45:52.835Z,82.90
2019-02-19T12:50:56.233Z,84.60
2019-02-19T12:55:59.615Z,83.30
2019-02-19T13:01:02.995Z,83.20
2019-02-19T13:06:06.380Z,83.50
2019-02-19T13:11:09.767Z,85.00
2019-02-19T13:16:13.143Z,84.00
2019-02-19T13:21:16.539Z,84.30
2019-02-19T13:26:19.936Z,84.40
2019-02-19T13:31:23.356Z,84.40
2019-02-19T13:36:26.739Z,85.60
2019-02-19T13:41:30.122Z,86.60
2019-02-19T13:46:33.511Z,87.20
2019-02-19T13:51:36.887Z,85.90
2019-02-19T13:56:40.266Z,85.90
2019-02-19T14:01:43.698Z,84.60
2019-02-19T14:06:47.101Z,84.20
2019-02-19T14:11:50.479Z,83.80
2019-02-19T14:16:55.503Z,83.60
2019-02-19T14:22:00.526Z,84.70
2019-02-19T14:27:14.351Z,84.10
2019-02-19T14:32:19.366Z,84.40
2019-02-19T14:37:36.264Z,85.00
2019-02-19T14:42:56.123Z,84.50
2019-02-19T14:48:03.816Z,85.30
2019-02-19T14:53:25.128Z,84.90
2019-02-19T14:58:33.198Z,84.30
2019-02-19T15:03:44.150Z,84.50
2019-02-19T15:08:49.190Z,84.40
2019-02-19T15:14:00.032Z,86.60
2019-02-19T15:19:11.095Z,86.70
2019-02-19T15:24:28.290Z,85.90
2019-02-19T15:29:42.285Z,85.90
2019-02-19T15:34:50.008Z,86.80
2019-02-19T15:40:03.909Z,88.30
2019-02-19T15:45:10.160Z,89.40
2019-02-19T15:50:15.195Z,90.00
2019-02-19T15:55:34.884Z,90.40
2019-02-19T16:00:43.551Z,90.90
2019-02-19T16:05:51.523Z,92.50
2019-02-19T16:10:59.541Z,94.30
2019-02-19T16:16:16.455Z,94.60
2019-02-19T16:21:24.472Z,96.20
2019-02-19T16:26:29.500Z,97.20
2019-02-19T16:31:50.568Z,98.10
2019-02-19T16:36:58.543Z,98.50
2019-02-19T16:42:19.844Z,98.20
2019-02-19T16:47:27.605Z,97.60
2019-02-19T16:52:32.641Z,98.90
2019-02-19T16:57:40.135Z,99.30
2019-02-19T17:02:56.949Z,99.20
2019-02-19T17:08:10.675Z,99.00
2019-02-19T17:13:15.694Z,99.00
2019-02-19T17:18:20.708Z,98.80
2019-02-19T17:23:40.695Z,98.80
2019-02-19T17:28:51.814Z,98.90
2019-02-19T17:33:59.783Z,99.00
2019-02-19T17:39:07.531Z,99.00
2019-02-19T17:44:18.218Z,99.30
2019-02-19T17:49:23.321Z,99.20
2019-02-19T17:54:31.305Z,99.40
2019-02-19T17:59:36.319Z,99.40
2019-02-19T18:04:57.440Z,99.60
2019-02-19T18:10:20.574Z,99.40
2019-02-19T18:15:40.387Z,99.30
2019-02-19T18:20:47.599Z,99.10
2019-02-19T18:25:49.247Z,99.20
2019-02-19T18:30:52.666Z,99.40
2019-02-19T18:35:56.037Z,99.30
2019-02-19T18:40:59.419Z,99.90
2019-02-19T18:46:02.813Z,99.90
2019-02-19T18:51:06.199Z,99.80
2019-02-19T18:56:09.586Z,99.70
2019-02-19T19:01:12.963Z,99.90
2019-02-19T19:06:18.296Z,99.80
2019-02-19T19:11:21.436Z,99.90
2019-02-19T19:16:24.845Z,99.80
2019-02-19T19:21:28.260Z,99.90
2019-02-19T19:26:31.624Z,99.90
2019-02-19T19:31:35.006Z,99.90
2019-02-19T19:36:38.405Z,99.90
2019-02-19T19:41:41.788Z,99.90
2019-02-19T19:46:45.167Z,99.90
2019-02-19T19:51:48.550Z,99.90
2019-02-19T19:56:51.927Z,99.90
2019-02-19T20:01:55.312Z,99.90
2019-02-19T20:06:58.700Z,99.90
2019-02-19T20:12:02.085Z,99.90
2019-02-19T20:17:05.478Z,99.90
2019-02-19T20:22:08.850Z,99.90
2019-02-19T20:27:12.238Z,99.90
2019-02-19T20:32:15.616Z,99.90
2019-02-19T20:37:18.996Z,99.90
2019-02-19T20:42:22.376Z,99.90
2019-02-19T20:47:25.766Z,99.90
2019-02-19T20:52:29.139Z,99.90
2019-02-19T20:57:32.516Z,99.90
2019-02-19T21:02:35.905Z,99.90
2019-02-19T21:07:39.287Z,99.90
2019-02-19T21:12:42.696Z,99.90
2019-02-19T21:17:46.071Z,99.90
2019-02-19T21:22:49.460Z,99.90
2019-02-19T21:27:52.840Z,99.90
2019-02-19T21:32:56.220Z,99.90
2019-02-19T21:37:59.596Z,99.90
2019-02-19T21:43:03.055Z,99.90
2019-02-19T21:48:06.451Z,99.90
2019-02-19T21:53:09.845Z,99.90
2019-02-19T21:58:13.224Z,99.90
2019-02-19T22:03:16.610Z,99.90
2019-02-19T22:08:20.004Z,99.90
2019-02-19T22:13:23.390Z,99.90
2019-02-19T22:18:26.779Z,99.90
2019-02-19T22:23:30.160Z,99.90
2019-02-19T22:28:33.552Z,99.90
2019-02-19T22:33:36.934Z,99.90
2019-02-19T22:38:40.315Z,99.90
2019-02-19T22:43:43.706Z,99.90
2019-02-19T22:48:47.098Z,99.90
2019-02-19T22:53:52.135Z,99.90
2019-02-19T22:58:55.521Z,99.90
2019-02-19T23:03:58.984Z,99.90
2019-02-19T23:09:02.435Z,99.90
2019-02-19T23:14:05.837Z,99.90
2019-02-19T23:19:09.224Z,99.90
2019-02-19T23:24:12.607Z,99.90
2019-02-19T23:29:15.984Z,99.90
2019-02-19T23:34:19.666Z,99.90
2019-02-19T23:39:23.048Z,99.90
2019-02-19T23:44:26.449Z,99.90
2019-02-19T23:49:29.822Z,99.90
2019-02-19T23:54:33.191Z,99.90
2019-02-19T23:59:36.659Z,99.90
